sensor_id;sensor_type;location;lat;lon;timestamp;P1;durP1;ratioP1;P2;durP2;ratioP2
38037;SDS011;23843;51.320;12.340;2024-03-08T00:01:52;6.93;;;4.23;;
38037;SDS011;23843;51.320;12.340;2024-03-08T00:04:17;8.83;;;4.80;;
38037;SDS011;23843;51.320;12.340;2024-03-08T00:06:43;8.20;;;5.00;;
38037;SDS011;23843;51.320;12.340;2024-03-08T00:09:09;11.27;;;5.23;;
38037;SDS011;23843;51.320;12.340;2024-03-08T00:11:34;6.90;;;4.30;;
38037;SDS011;23843;51.320;12.340;2024-03-08T00:14:00;9.27;;;4.80;;
38037;SDS011;23843;51.320;12.340;2024-03-08T00:16:26;8.03;;;5.03;;
38037;SDS011;23843;51.320;12.340;2024-03-08T00:18:52;7.53;;;4.23;;
38037;SDS011;23843;51.320;12.340;2024-03-08T00:21:17;8.43;;;4.30;;
38037;SDS011;23843;51.320;12.340;2024-03-08T00:23:43;7.37;;;4.17;;
38037;SDS011;23843;51.320;12.340;2024-03-08T00:26:09;9.43;;;5.13;;
38037;SDS011;23843;51.320;12.340;2024-03-08T00:28:34;9.53;;;5.60;;
38037;SDS011;23843;51.320;12.340;2024-03-08T00:31:00;10.13;;;6.07;;
38037;SDS011;23843;51.320;12.340;2024-03-08T00:33:26;8.83;;;4.90;;
38037;SDS011;23843;51.320;12.340;2024-03-08T00:35:52;8.77;;;4.50;;
38037;SDS011;23843;51.320;12.340;2024-03-08T00:38:17;7.43;;;4.00;;
38037;SDS011;23843;51.320;12.340;2024-03-08T00:40:43;7.90;;;4.50;;
38037;SDS011;23843;51.320;12.340;2024-03-08T00:43:09;10.67;;;5.30;;
38037;SDS011;23843;51.320;12.340;2024-03-08T00:45:34;8.10;;;4.20;;
38037;SDS011;23843;51.320;12.340;2024-03-08T00:48:00;11.17;;;6.30;;
38037;SDS011;23843;51.320;12.340;2024-03-08T00:50:27;10.23;;;6.00;;
38037;SDS011;23843;51.320;12.340;2024-03-08T00:52:52;11.13;;;5.77;;
38037;SDS011;23843;51.320;12.340;2024-03-08T00:55:18;8.83;;;5.20;;
38037;SDS011;23843;51.320;12.340;2024-03-08T00:57:43;10.87;;;6.07;;
38037;SDS011;23843;51.320;12.340;2024-03-08T01:00:09;12.23;;;6.10;;
38037;SDS011;23843;51.320;12.340;2024-03-08T01:02:35;7.50;;;4.37;;
38037;SDS011;23843;51.320;12.340;2024-03-08T01:05:01;8.67;;;5.33;;
38037;SDS011;23843;51.320;12.340;2024-03-08T01:07:28;12.00;;;5.90;;
38037;SDS011;23843;51.320;12.340;2024-03-08T01:09:53;8.40;;;4.43;;
38037;SDS011;23843;51.320;12.340;2024-03-08T01:12:19;8.97;;;5.27;;
38037;SDS011;23843;51.320;12.340;2024-03-08T01:14:45;11.13;;;6.13;;
38037;SDS011;23843;51.320;12.340;2024-03-08T01:17:10;7.37;;;4.77;;
38037;SDS011;23843;51.320;12.340;2024-03-08T01:19:35;8.50;;;4.83;;
38037;SDS011;23843;51.320;12.340;2024-03-08T01:22:01;7.30;;;4.40;;
38037;SDS011;23843;51.320;12.340;2024-03-08T01:24:28;10.97;;;6.20;;
38037;SDS011;23843;51.320;12.340;2024-03-08T01:26:53;11.97;;;6.80;;
38037;SDS011;23843;51.320;12.340;2024-03-08T01:29:19;8.23;;;4.50;;
38037;SDS011;23843;51.320;12.340;2024-03-08T01:31:44;6.87;;;3.93;;
38037;SDS011;23843;51.320;12.340;2024-03-08T01:34:10;7.57;;;4.57;;
38037;SDS011;23843;51.320;12.340;2024-03-08T01:36:35;8.37;;;4.60;;
38037;SDS011;23843;51.320;12.340;2024-03-08T01:39:00;6.37;;;3.50;;
38037;SDS011;23843;51.320;12.340;2024-03-08T01:41:27;4.97;;;3.10;;
38037;SDS011;23843;51.320;12.340;2024-03-08T01:43:53;5.10;;;3.03;;
38037;SDS011;23843;51.320;12.340;2024-03-08T01:46:19;5.03;;;2.83;;
38037;SDS011;23843;51.320;12.340;2024-03-08T01:48:46;6.57;;;3.80;;
38037;SDS011;23843;51.320;12.340;2024-03-08T01:51:12;7.87;;;4.60;;
38037;SDS011;23843;51.320;12.340;2024-03-08T01:53:38;8.40;;;4.50;;
38037;SDS011;23843;51.320;12.340;2024-03-08T01:56:05;7.77;;;4.23;;
38037;SDS011;23843;51.320;12.340;2024-03-08T01:58:33;7.33;;;4.30;;
38037;SDS011;23843;51.320;12.340;2024-03-08T02:00:58;7.60;;;4.23;;
38037;SDS011;23843;51.320;12.340;2024-03-08T02:03:24;7.83;;;4.47;;
38037;SDS011;23843;51.320;12.340;2024-03-08T02:05:50;9.50;;;5.10;;
38037;SDS011;23843;51.320;12.340;2024-03-08T02:08:15;8.87;;;5.00;;
38037;SDS011;23843;51.320;12.340;2024-03-08T02:10:41;6.90;;;3.80;;
38037;SDS011;23843;51.320;12.340;2024-03-08T02:13:08;8.60;;;4.83;;
38037;SDS011;23843;51.320;12.340;2024-03-08T02:15:51;10.80;;;5.60;;
38037;SDS011;23843;51.320;12.340;2024-03-08T02:18:17;8.70;;;4.37;;
38037;SDS011;23843;51.320;12.340;2024-03-08T02:20:44;8.43;;;4.80;;
38037;SDS011;23843;51.320;12.340;2024-03-08T02:23:10;6.53;;;3.60;;
38037;SDS011;23843;51.320;12.340;2024-03-08T02:25:35;9.80;;;5.60;;
38037;SDS011;23843;51.320;12.340;2024-03-08T02:28:01;6.87;;;4.60;;
38037;SDS011;23843;51.320;12.340;2024-03-08T02:30:27;6.03;;;3.90;;
38037;SDS011;23843;51.320;12.340;2024-03-08T02:32:52;9.33;;;4.77;;
38037;SDS011;23843;51.320;12.340;2024-03-08T02:35:17;9.43;;;5.47;;
38037;SDS011;23843;51.320;12.340;2024-03-08T02:37:44;9.80;;;5.50;;
38037;SDS011;23843;51.320;12.340;2024-03-08T02:40:10;6.53;;;4.20;;
38037;SDS011;23843;51.320;12.340;2024-03-08T02:42:36;7.80;;;4.57;;
38037;SDS011;23843;51.320;12.340;2024-03-08T02:45:02;8.53;;;4.77;;
38037;SDS011;23843;51.320;12.340;2024-03-08T02:47:28;9.80;;;4.90;;
38037;SDS011;23843;51.320;12.340;2024-03-08T02:49:53;7.67;;;3.73;;
38037;SDS011;23843;51.320;12.340;2024-03-08T02:52:19;5.97;;;3.67;;
38037;SDS011;23843;51.320;12.340;2024-03-08T02:54:45;7.50;;;4.00;;
38037;SDS011;23843;51.320;12.340;2024-03-08T02:57:11;7.47;;;4.00;;
38037;SDS011;23843;51.320;12.340;2024-03-08T02:59:36;7.30;;;3.30;;
38037;SDS011;23843;51.320;12.340;2024-03-08T03:02:02;7.77;;;4.53;;
38037;SDS011;23843;51.320;12.340;2024-03-08T03:04:27;9.03;;;5.20;;
38037;SDS011;23843;51.320;12.340;2024-03-08T03:06:52;6.77;;;4.07;;
38037;SDS011;23843;51.320;12.340;2024-03-08T03:09:18;7.50;;;4.50;;
38037;SDS011;23843;51.320;12.340;2024-03-08T03:11:45;8.80;;;4.53;;
38037;SDS011;23843;51.320;12.340;2024-03-08T03:14:10;7.93;;;4.07;;
38037;SDS011;23843;51.320;12.340;2024-03-08T03:16:36;6.97;;;4.20;;
38037;SDS011;23843;51.320;12.340;2024-03-08T03:19:01;8.10;;;4.53;;
38037;SDS011;23843;51.320;12.340;2024-03-08T03:21:28;8.47;;;4.60;;
38037;SDS011;23843;51.320;12.340;2024-03-08T03:23:53;9.30;;;4.93;;
38037;SDS011;23843;51.320;12.340;2024-03-08T03:26:18;7.20;;;4.10;;
38037;SDS011;23843;51.320;12.340;2024-03-08T03:28:45;10.20;;;5.07;;
38037;SDS011;23843;51.320;12.340;2024-03-08T03:31:11;8.03;;;4.60;;
38037;SDS011;23843;51.320;12.340;2024-03-08T03:33:36;7.53;;;4.67;;
38037;SDS011;23843;51.320;12.340;2024-03-08T03:36:02;10.17;;;5.03;;
38037;SDS011;23843;51.320;12.340;2024-03-08T03:38:27;6.87;;;3.80;;
38037;SDS011;23843;51.320;12.340;2024-03-08T03:40:53;8.37;;;5.00;;
38037;SDS011;23843;51.320;12.340;2024-03-08T03:43:19;8.50;;;4.43;;
38037;SDS011;23843;51.320;12.340;2024-03-08T03:45:45;6.13;;;3.73;;
38037;SDS011;23843;51.320;12.340;2024-03-08T03:48:11;6.30;;;3.47;;
38037;SDS011;23843;51.320;12.340;2024-03-08T03:50:36;7.63;;;4.40;;
38037;SDS011;23843;51.320;12.340;2024-03-08T03:53:02;7.73;;;4.40;;
38037;SDS011;23843;51.320;12.340;2024-03-08T03:55:27;9.13;;;5.00;;
38037;SDS011;23843;51.320;12.340;2024-03-08T03:57:53;7.67;;;4.50;;
38037;SDS011;23843;51.320;12.340;2024-03-08T04:00:19;7.07;;;3.70;;
38037;SDS011;23843;51.320;12.340;2024-03-08T04:02:46;8.63;;;4.40;;
38037;SDS011;23843;51.320;12.340;2024-03-08T04:05:11;8.53;;;4.40;;
38037;SDS011;23843;51.320;12.340;2024-03-08T04:07:37;7.10;;;3.70;;
38037;SDS011;23843;51.320;12.340;2024-03-08T04:10:03;5.90;;;3.10;;
38037;SDS011;23843;51.320;12.340;2024-03-08T04:12:31;4.73;;;3.20;;
38037;SDS011;23843;51.320;12.340;2024-03-08T04:14:56;6.63;;;3.43;;
38037;SDS011;23843;51.320;12.340;2024-03-08T04:17:22;6.33;;;3.60;;
38037;SDS011;23843;51.320;12.340;2024-03-08T04:19:48;7.43;;;3.93;;
38037;SDS011;23843;51.320;12.340;2024-03-08T04:22:14;5.27;;;2.77;;
38037;SDS011;23843;51.320;12.340;2024-03-08T04:24:39;6.03;;;3.67;;
38037;SDS011;23843;51.320;12.340;2024-03-08T04:27:05;6.27;;;3.10;;
38037;SDS011;23843;51.320;12.340;2024-03-08T04:29:31;6.37;;;3.63;;
38037;SDS011;23843;51.320;12.340;2024-03-08T04:31:56;6.17;;;3.50;;
38037;SDS011;23843;51.320;12.340;2024-03-08T04:34:22;7.10;;;4.03;;
38037;SDS011;23843;51.320;12.340;2024-03-08T04:36:48;7.47;;;3.70;;
38037;SDS011;23843;51.320;12.340;2024-03-08T04:39:14;6.00;;;3.33;;
38037;SDS011;23843;51.320;12.340;2024-03-08T04:41:40;4.80;;;2.73;;
38037;SDS011;23843;51.320;12.340;2024-03-08T04:44:05;5.33;;;2.77;;
38037;SDS011;23843;51.320;12.340;2024-03-08T04:46:31;7.40;;;3.87;;
38037;SDS011;23843;51.320;12.340;2024-03-08T04:48:56;4.87;;;2.87;;
38037;SDS011;23843;51.320;12.340;2024-03-08T04:51:22;5.83;;;3.43;;
38037;SDS011;23843;51.320;12.340;2024-03-08T04:53:49;7.03;;;3.53;;
38037;SDS011;23843;51.320;12.340;2024-03-08T04:56:14;6.30;;;3.47;;
38037;SDS011;23843;51.320;12.340;2024-03-08T04:58:40;9.50;;;5.47;;
38037;SDS011;23843;51.320;12.340;2024-03-08T05:01:05;10.73;;;5.63;;
38037;SDS011;23843;51.320;12.340;2024-03-08T05:03:30;8.93;;;5.20;;
38037;SDS011;23843;51.320;12.340;2024-03-08T05:05:56;8.53;;;4.87;;
38037;SDS011;23843;51.320;12.340;2024-03-08T05:08:21;10.77;;;5.50;;
38037;SDS011;23843;51.320;12.340;2024-03-08T05:10:48;7.20;;;4.40;;
38037;SDS011;23843;51.320;12.340;2024-03-08T05:13:14;7.47;;;4.33;;
38037;SDS011;23843;51.320;12.340;2024-03-08T05:15:39;7.50;;;4.03;;
38037;SDS011;23843;51.320;12.340;2024-03-08T05:18:05;7.00;;;3.47;;
38037;SDS011;23843;51.320;12.340;2024-03-08T05:20:30;8.30;;;4.20;;
38037;SDS011;23843;51.320;12.340;2024-03-08T05:22:56;6.20;;;3.57;;
38037;SDS011;23843;51.320;12.340;2024-03-08T05:25:21;6.23;;;3.30;;
38037;SDS011;23843;51.320;12.340;2024-03-08T05:27:48;5.40;;;3.10;;
38037;SDS011;23843;51.320;12.340;2024-03-08T05:30:14;5.83;;;2.77;;
38037;SDS011;23843;51.320;12.340;2024-03-08T05:32:39;6.23;;;3.30;;
38037;SDS011;23843;51.320;12.340;2024-03-08T05:35:05;6.40;;;3.47;;
38037;SDS011;23843;51.320;12.340;2024-03-08T05:37:30;6.43;;;3.53;;
38037;SDS011;23843;51.320;12.340;2024-03-08T05:39:56;6.63;;;3.30;;
38037;SDS011;23843;51.320;12.340;2024-03-08T05:42:21;7.03;;;3.67;;
38037;SDS011;23843;51.320;12.340;2024-03-08T05:44:48;7.30;;;4.00;;
38037;SDS011;23843;51.320;12.340;2024-03-08T05:47:14;6.77;;;3.97;;
38037;SDS011;23843;51.320;12.340;2024-03-08T05:49:39;8.17;;;4.40;;
38037;SDS011;23843;51.320;12.340;2024-03-08T05:52:05;9.07;;;4.80;;
38037;SDS011;23843;51.320;12.340;2024-03-08T05:54:30;6.23;;;3.80;;
38037;SDS011;23843;51.320;12.340;2024-03-08T05:56:56;7.47;;;4.50;;
38037;SDS011;23843;51.320;12.340;2024-03-08T05:59:21;6.43;;;3.70;;
38037;SDS011;23843;51.320;12.340;2024-03-08T06:01:48;8.97;;;4.10;;
38037;SDS011;23843;51.320;12.340;2024-03-08T06:04:13;9.53;;;5.20;;
38037;SDS011;23843;51.320;12.340;2024-03-08T06:06:39;10.50;;;5.70;;
38037;SDS011;23843;51.320;12.340;2024-03-08T06:09:04;8.67;;;5.10;;
38037;SDS011;23843;51.320;12.340;2024-03-08T06:11:30;9.60;;;5.53;;
38037;SDS011;23843;51.320;12.340;2024-03-08T06:13:55;10.40;;;5.20;;
38037;SDS011;23843;51.320;12.340;2024-03-08T06:16:21;12.13;;;6.13;;
38037;SDS011;23843;51.320;12.340;2024-03-08T06:18:48;10.13;;;5.40;;
38037;SDS011;23843;51.320;12.340;2024-03-08T06:21:13;12.67;;;6.43;;
38037;SDS011;23843;51.320;12.340;2024-03-08T06:23:39;14.47;;;7.50;;
38037;SDS011;23843;51.320;12.340;2024-03-08T06:26:04;15.47;;;7.73;;
38037;SDS011;23843;51.320;12.340;2024-03-08T06:28:30;15.40;;;7.83;;
38037;SDS011;23843;51.320;12.340;2024-03-08T06:30:56;12.53;;;6.70;;
38037;SDS011;23843;51.320;12.340;2024-03-08T06:33:21;10.97;;;5.90;;
38037;SDS011;23843;51.320;12.340;2024-03-08T06:35:48;12.17;;;6.60;;
38037;SDS011;23843;51.320;12.340;2024-03-08T06:38:13;14.60;;;7.60;;
38037;SDS011;23843;51.320;12.340;2024-03-08T06:40:39;13.07;;;7.67;;
38037;SDS011;23843;51.320;12.340;2024-03-08T06:43:04;12.27;;;7.03;;
38037;SDS011;23843;51.320;12.340;2024-03-08T06:45:30;14.37;;;8.23;;
38037;SDS011;23843;51.320;12.340;2024-03-08T06:47:55;11.00;;;6.60;;
38037;SDS011;23843;51.320;12.340;2024-03-08T06:50:21;11.90;;;7.20;;
38037;SDS011;23843;51.320;12.340;2024-03-08T06:52:48;10.73;;;6.13;;
38037;SDS011;23843;51.320;12.340;2024-03-08T06:55:13;10.67;;;6.70;;
38037;SDS011;23843;51.320;12.340;2024-03-08T06:57:39;10.17;;;5.73;;
38037;SDS011;23843;51.320;12.340;2024-03-08T07:00:05;10.13;;;5.53;;
38037;SDS011;23843;51.320;12.340;2024-03-08T07:02:31;14.07;;;7.53;;
38037;SDS011;23843;51.320;12.340;2024-03-08T07:04:57;10.63;;;6.40;;
38037;SDS011;23843;51.320;12.340;2024-03-08T07:07:22;9.70;;;5.67;;
38037;SDS011;23843;51.320;12.340;2024-03-08T07:09:49;17.23;;;10.20;;
38037;SDS011;23843;51.320;12.340;2024-03-08T07:12:14;15.40;;;8.70;;
38037;SDS011;23843;51.320;12.340;2024-03-08T07:14:40;12.60;;;6.83;;
38037;SDS011;23843;51.320;12.340;2024-03-08T07:17:06;10.20;;;5.97;;
38037;SDS011;23843;51.320;12.340;2024-03-08T07:19:31;12.23;;;7.43;;
38037;SDS011;23843;51.320;12.340;2024-03-08T07:21:57;11.07;;;6.27;;
38037;SDS011;23843;51.320;12.340;2024-03-08T07:24:22;11.50;;;5.90;;
38037;SDS011;23843;51.320;12.340;2024-03-08T07:26:49;10.73;;;6.07;;
38037;SDS011;23843;51.320;12.340;2024-03-08T07:29:15;11.77;;;6.77;;
38037;SDS011;23843;51.320;12.340;2024-03-08T07:31:41;9.53;;;5.70;;
38037;SDS011;23843;51.320;12.340;2024-03-08T07:34:06;12.20;;;6.93;;
38037;SDS011;23843;51.320;12.340;2024-03-08T07:36:32;8.97;;;5.50;;
38037;SDS011;23843;51.320;12.340;2024-03-08T07:38:57;11.77;;;6.57;;
38037;SDS011;23843;51.320;12.340;2024-03-08T07:41:23;10.60;;;6.20;;
38037;SDS011;23843;51.320;12.340;2024-03-08T07:43:50;11.40;;;6.97;;
38037;SDS011;23843;51.320;12.340;2024-03-08T07:46:16;10.33;;;5.87;;
38037;SDS011;23843;51.320;12.340;2024-03-08T07:48:41;13.33;;;7.80;;
38037;SDS011;23843;51.320;12.340;2024-03-08T07:51:07;11.50;;;6.77;;
38037;SDS011;23843;51.320;12.340;2024-03-08T07:53:32;10.10;;;6.13;;
38037;SDS011;23843;51.320;12.340;2024-03-08T07:55:58;11.23;;;6.07;;
38037;SDS011;23843;51.320;12.340;2024-03-08T07:58:23;13.97;;;8.40;;
38037;SDS011;23843;51.320;12.340;2024-03-08T08:00:50;9.73;;;5.70;;
38037;SDS011;23843;51.320;12.340;2024-03-08T08:03:16;12.00;;;7.33;;
38037;SDS011;23843;51.320;12.340;2024-03-08T08:05:41;16.90;;;10.00;;
38037;SDS011;23843;51.320;12.340;2024-03-08T08:08:07;13.00;;;7.57;;
38037;SDS011;23843;51.320;12.340;2024-03-08T08:10:33;11.33;;;6.70;;
38037;SDS011;23843;51.320;12.340;2024-03-08T08:12:58;12.57;;;7.60;;
38037;SDS011;23843;51.320;12.340;2024-03-08T08:15:24;10.50;;;6.53;;
38037;SDS011;23843;51.320;12.340;2024-03-08T08:17:51;10.13;;;6.73;;
38037;SDS011;23843;51.320;12.340;2024-03-08T08:20:16;9.37;;;5.73;;
38037;SDS011;23843;51.320;12.340;2024-03-08T08:22:42;10.83;;;6.97;;
38037;SDS011;23843;51.320;12.340;2024-03-08T08:25:07;11.03;;;7.40;;
38037;SDS011;23843;51.320;12.340;2024-03-08T08:27:33;8.90;;;5.53;;
38037;SDS011;23843;51.320;12.340;2024-03-08T08:29:59;9.33;;;6.03;;
38037;SDS011;23843;51.320;12.340;2024-03-08T08:32:24;8.10;;;5.27;;
38037;SDS011;23843;51.320;12.340;2024-03-08T08:34:51;7.20;;;4.73;;
38037;SDS011;23843;51.320;12.340;2024-03-08T08:37:17;7.27;;;4.90;;
38037;SDS011;23843;51.320;12.340;2024-03-08T08:39:42;7.07;;;4.63;;
38037;SDS011;23843;51.320;12.340;2024-03-08T08:42:08;6.37;;;4.30;;
38037;SDS011;23843;51.320;12.340;2024-03-08T08:44:33;6.23;;;3.70;;
38037;SDS011;23843;51.320;12.340;2024-03-08T08:46:58;9.27;;;6.63;;
38037;SDS011;23843;51.320;12.340;2024-03-08T08:49:24;10.50;;;7.30;;
38037;SDS011;23843;51.320;12.340;2024-03-08T08:51:51;10.83;;;7.27;;
38037;SDS011;23843;51.320;12.340;2024-03-08T08:54:17;11.40;;;7.20;;
38037;SDS011;23843;51.320;12.340;2024-03-08T08:56:42;12.37;;;7.87;;
38037;SDS011;23843;51.320;12.340;2024-03-08T08:59:08;10.73;;;7.20;;
38037;SDS011;23843;51.320;12.340;2024-03-08T09:01:33;9.03;;;5.80;;
38037;SDS011;23843;51.320;12.340;2024-03-08T09:03:59;8.87;;;6.10;;
38037;SDS011;23843;51.320;12.340;2024-03-08T09:09:01;11.43;;;8.03;;
38037;SDS011;23843;51.320;12.340;2024-03-08T09:11:26;13.73;;;9.03;;
38037;SDS011;23843;51.320;12.340;2024-03-08T09:13:52;13.03;;;8.37;;
38037;SDS011;23843;51.320;12.340;2024-03-08T09:16:17;13.43;;;9.30;;
38037;SDS011;23843;51.320;12.340;2024-03-08T09:18:42;11.53;;;8.13;;
38037;SDS011;23843;51.320;12.340;2024-03-08T09:21:08;13.33;;;9.63;;
38037;SDS011;23843;51.320;12.340;2024-03-08T09:23:33;13.83;;;9.67;;
38037;SDS011;23843;51.320;12.340;2024-03-08T09:26:00;10.27;;;6.63;;
38037;SDS011;23843;51.320;12.340;2024-03-08T09:28:25;9.57;;;6.47;;
38037;SDS011;23843;51.320;12.340;2024-03-08T09:30:51;10.70;;;6.57;;
38037;SDS011;23843;51.320;12.340;2024-03-08T09:33:16;10.80;;;6.93;;
38037;SDS011;23843;51.320;12.340;2024-03-08T09:35:42;6.60;;;5.20;;
38037;SDS011;23843;51.320;12.340;2024-03-08T09:38:07;6.63;;;4.97;;
38037;SDS011;23843;51.320;12.340;2024-03-08T09:40:33;8.07;;;5.70;;
38037;SDS011;23843;51.320;12.340;2024-03-08T09:43:00;8.47;;;5.73;;
38037;SDS011;23843;51.320;12.340;2024-03-08T09:45:25;8.67;;;6.27;;
38037;SDS011;23843;51.320;12.340;2024-03-08T09:47:51;8.73;;;5.90;;
38037;SDS011;23843;51.320;12.340;2024-03-08T09:50:17;11.37;;;7.17;;
38037;SDS011;23843;51.320;12.340;2024-03-08T09:52:43;14.07;;;9.60;;
38037;SDS011;23843;51.320;12.340;2024-03-08T09:55:12;12.37;;;7.27;;
38037;SDS011;23843;51.320;12.340;2024-03-08T09:57:38;9.90;;;7.47;;
38037;SDS011;23843;51.320;12.340;2024-03-08T10:00:06;9.17;;;6.20;;
38037;SDS011;23843;51.320;12.340;2024-03-08T10:02:32;10.87;;;7.67;;
38037;SDS011;23843;51.320;12.340;2024-03-08T10:04:59;10.70;;;7.30;;
38037;SDS011;23843;51.320;12.340;2024-03-08T10:07:26;12.27;;;8.70;;
38037;SDS011;23843;51.320;12.340;2024-03-08T10:09:51;13.83;;;8.83;;
38037;SDS011;23843;51.320;12.340;2024-03-08T10:12:17;13.50;;;8.73;;
38037;SDS011;23843;51.320;12.340;2024-03-08T10:14:42;21.07;;;13.77;;
38037;SDS011;23843;51.320;12.340;2024-03-08T10:17:10;17.37;;;12.40;;
38037;SDS011;23843;51.320;12.340;2024-03-08T10:19:35;14.53;;;10.03;;
38037;SDS011;23843;51.320;12.340;2024-03-08T10:22:00;16.67;;;10.17;;
38037;SDS011;23843;51.320;12.340;2024-03-08T10:24:26;13.50;;;8.30;;
38037;SDS011;23843;51.320;12.340;2024-03-08T10:26:52;14.10;;;9.40;;
38037;SDS011;23843;51.320;12.340;2024-03-08T10:29:18;14.70;;;9.17;;
38037;SDS011;23843;51.320;12.340;2024-03-08T10:31:44;14.83;;;10.07;;
38037;SDS011;23843;51.320;12.340;2024-03-08T10:34:10;15.87;;;9.33;;
38037;SDS011;23843;51.320;12.340;2024-03-08T10:36:36;12.83;;;8.23;;
38037;SDS011;23843;51.320;12.340;2024-03-08T10:39:02;11.07;;;7.00;;
38037;SDS011;23843;51.320;12.340;2024-03-08T10:41:32;15.50;;;9.47;;
38037;SDS011;23843;51.320;12.340;2024-03-08T10:44:08;15.70;;;9.60;;
38037;SDS011;23843;51.320;12.340;2024-03-08T10:46:45;23.13;;;13.60;;
38037;SDS011;23843;51.320;12.340;2024-03-08T10:49:29;20.60;;;12.40;;
38037;SDS011;23843;51.320;12.340;2024-03-08T10:51:57;19.17;;;11.20;;
38037;SDS011;23843;51.320;12.340;2024-03-08T10:54:22;20.83;;;12.07;;
38037;SDS011;23843;51.320;12.340;2024-03-08T10:56:50;19.57;;;10.63;;
38037;SDS011;23843;51.320;12.340;2024-03-08T10:59:16;16.87;;;9.83;;
38037;SDS011;23843;51.320;12.340;2024-03-08T11:01:43;17.57;;;11.13;;
38037;SDS011;23843;51.320;12.340;2024-03-08T11:04:09;14.50;;;9.07;;
38037;SDS011;23843;51.320;12.340;2024-03-08T11:06:42;12.87;;;7.80;;
38037;SDS011;23843;51.320;12.340;2024-03-08T11:14:44;16.77;;;9.77;;
38037;SDS011;23843;51.320;12.340;2024-03-08T11:17:13;16.30;;;9.83;;
38037;SDS011;23843;51.320;12.340;2024-03-08T11:19:38;13.90;;;7.80;;
38037;SDS011;23843;51.320;12.340;2024-03-08T11:22:13;13.57;;;7.77;;
38037;SDS011;23843;51.320;12.340;2024-03-08T11:24:46;18.37;;;11.30;;
38037;SDS011;23843;51.320;12.340;2024-03-08T11:27:12;21.23;;;12.63;;
38037;SDS011;23843;51.320;12.340;2024-03-08T11:29:37;15.97;;;9.37;;
38037;SDS011;23843;51.320;12.340;2024-03-08T11:32:04;18.83;;;11.77;;
38037;SDS011;23843;51.320;12.340;2024-03-08T11:34:30;21.93;;;11.87;;
38037;SDS011;23843;51.320;12.340;2024-03-08T11:36:55;13.70;;;8.57;;
38037;SDS011;23843;51.320;12.340;2024-03-08T11:39:22;15.27;;;9.10;;
38037;SDS011;23843;51.320;12.340;2024-03-08T11:41:48;11.90;;;7.70;;
38037;SDS011;23843;51.320;12.340;2024-03-08T11:44:13;22.83;;;13.10;;
38037;SDS011;23843;51.320;12.340;2024-03-08T11:46:39;25.67;;;13.77;;
38037;SDS011;23843;51.320;12.340;2024-03-08T11:49:04;23.67;;;14.60;;
38037;SDS011;23843;51.320;12.340;2024-03-08T11:51:29;20.47;;;11.90;;
38037;SDS011;23843;51.320;12.340;2024-03-08T11:53:55;19.30;;;10.40;;
38037;SDS011;23843;51.320;12.340;2024-03-08T11:56:22;10.67;;;6.93;;
38037;SDS011;23843;51.320;12.340;2024-03-08T11:58:52;15.17;;;8.83;;
38037;SDS011;23843;51.320;12.340;2024-03-08T12:01:18;19.13;;;11.83;;
38037;SDS011;23843;51.320;12.340;2024-03-08T12:03:44;19.87;;;11.97;;
38037;SDS011;23843;51.320;12.340;2024-03-08T12:06:18;17.47;;;10.43;;
38037;SDS011;23843;51.320;12.340;2024-03-08T12:08:43;21.40;;;12.27;;
38037;SDS011;23843;51.320;12.340;2024-03-08T12:11:11;16.70;;;9.87;;
38037;SDS011;23843;51.320;12.340;2024-03-08T12:13:38;18.40;;;10.87;;
38037;SDS011;23843;51.320;12.340;2024-03-08T12:16:04;17.40;;;10.90;;
38037;SDS011;23843;51.320;12.340;2024-03-08T12:18:32;17.20;;;10.67;;
38037;SDS011;23843;51.320;12.340;2024-03-08T12:21:05;18.57;;;11.20;;
38037;SDS011;23843;51.320;12.340;2024-03-08T12:23:31;24.30;;;13.80;;
38037;SDS011;23843;51.320;12.340;2024-03-08T12:25:57;18.93;;;11.73;;
38037;SDS011;23843;51.320;12.340;2024-03-08T12:28:22;13.40;;;8.10;;
38037;SDS011;23843;51.320;12.340;2024-03-08T12:30:49;20.57;;;12.27;;
38037;SDS011;23843;51.320;12.340;2024-03-08T12:33:16;16.37;;;9.57;;
38037;SDS011;23843;51.320;12.340;2024-03-08T12:35:49;15.93;;;10.17;;
38037;SDS011;23843;51.320;12.340;2024-03-08T12:38:16;18.40;;;10.77;;
38037;SDS011;23843;51.320;12.340;2024-03-08T12:40:42;18.17;;;10.83;;
38037;SDS011;23843;51.320;12.340;2024-03-08T12:43:07;16.07;;;9.23;;
38037;SDS011;23843;51.320;12.340;2024-03-08T12:45:33;15.43;;;8.13;;
38037;SDS011;23843;51.320;12.340;2024-03-08T12:47:59;11.73;;;6.60;;
38037;SDS011;23843;51.320;12.340;2024-03-08T12:50:25;14.47;;;8.93;;
38037;SDS011;23843;51.320;12.340;2024-03-08T12:52:50;18.33;;;10.10;;
38037;SDS011;23843;51.320;12.340;2024-03-08T12:55:16;17.40;;;10.03;;
38037;SDS011;23843;51.320;12.340;2024-03-08T12:57:43;16.33;;;9.70;;
38037;SDS011;23843;51.320;12.340;2024-03-08T13:00:09;14.33;;;8.03;;
38037;SDS011;23843;51.320;12.340;2024-03-08T13:02:35;16.27;;;9.90;;
38037;SDS011;23843;51.320;12.340;2024-03-08T13:05:02;18.13;;;11.00;;
38037;SDS011;23843;51.320;12.340;2024-03-08T13:07:27;19.47;;;12.50;;
38037;SDS011;23843;51.320;12.340;2024-03-08T13:09:53;20.80;;;11.20;;
38037;SDS011;23843;51.320;12.340;2024-03-08T13:12:18;18.30;;;11.07;;
38037;SDS011;23843;51.320;12.340;2024-03-08T13:14:44;19.60;;;11.30;;
38037;SDS011;23843;51.320;12.340;2024-03-08T13:17:09;14.53;;;8.53;;
38037;SDS011;23843;51.320;12.340;2024-03-08T13:19:35;15.97;;;9.37;;
38037;SDS011;23843;51.320;12.340;2024-03-08T13:22:01;12.83;;;7.43;;
38037;SDS011;23843;51.320;12.340;2024-03-08T13:24:27;18.73;;;11.40;;
38037;SDS011;23843;51.320;12.340;2024-03-08T13:26:52;17.53;;;11.00;;
38037;SDS011;23843;51.320;12.340;2024-03-08T13:29:18;17.53;;;10.57;;
38037;SDS011;23843;51.320;12.340;2024-03-08T13:31:43;15.67;;;9.30;;
38037;SDS011;23843;51.320;12.340;2024-03-08T13:34:09;16.00;;;11.00;;
38037;SDS011;23843;51.320;12.340;2024-03-08T13:36:34;15.10;;;8.90;;
38037;SDS011;23843;51.320;12.340;2024-03-08T13:39:01;15.63;;;9.53;;
38037;SDS011;23843;51.320;12.340;2024-03-08T13:41:27;13.37;;;7.77;;
38037;SDS011;23843;51.320;12.340;2024-03-08T13:43:52;12.97;;;7.80;;
38037;SDS011;23843;51.320;12.340;2024-03-08T13:46:18;14.90;;;8.60;;
38037;SDS011;23843;51.320;12.340;2024-03-08T13:48:43;19.37;;;10.97;;
38037;SDS011;23843;51.320;12.340;2024-03-08T13:51:08;18.80;;;10.57;;
38037;SDS011;23843;51.320;12.340;2024-03-08T13:53:34;18.93;;;11.17;;
38037;SDS011;23843;51.320;12.340;2024-03-08T13:56:01;19.20;;;11.57;;
38037;SDS011;23843;51.320;12.340;2024-03-08T13:58:27;16.60;;;10.77;;
38037;SDS011;23843;51.320;12.340;2024-03-08T14:00:52;12.53;;;7.80;;
38037;SDS011;23843;51.320;12.340;2024-03-08T14:03:18;15.53;;;9.40;;
38037;SDS011;23843;51.320;12.340;2024-03-08T14:05:43;16.60;;;10.67;;
38037;SDS011;23843;51.320;12.340;2024-03-08T14:08:09;17.40;;;10.27;;
38037;SDS011;23843;51.320;12.340;2024-03-08T14:10:35;18.60;;;11.63;;
38037;SDS011;23843;51.320;12.340;2024-03-08T14:13:01;17.40;;;9.80;;
38037;SDS011;23843;51.320;12.340;2024-03-08T14:15:27;16.60;;;9.60;;
38037;SDS011;23843;51.320;12.340;2024-03-08T14:17:53;11.40;;;7.30;;
38037;SDS011;23843;51.320;12.340;2024-03-08T14:20:18;13.17;;;8.30;;
38037;SDS011;23843;51.320;12.340;2024-03-08T14:22:44;12.30;;;8.13;;
38037;SDS011;23843;51.320;12.340;2024-03-08T14:25:09;14.73;;;9.40;;
38037;SDS011;23843;51.320;12.340;2024-03-08T14:27:35;19.07;;;11.70;;